createdAt,value
2019-03-05T00:01:14.772Z,99916.23
2019-03-05T00:02:19.867Z,99922.16
2019-03-05T00:03:24.938Z,99909.20
2019-03-05T00:04:29.975Z,99914.14
2019-03-05T00:05:35.038Z,99913.08
2019-03-05T00:06:40.300Z,99914.20
2019-03-05T00:07:45.677Z,99911.34
2019-03-05T00:08:50.891Z,99909.66
2019-03-05T00:09:55.965Z,99917.23
2019-03-05T00:11:01.135Z,99914.25
2019-03-05T00:12:06.240Z,99923.63
2019-03-05T00:13:11.391Z,99923.63
2019-03-05T00:14:18.748Z,99917.49
2019-03-05T00:15:25.999Z,99918.22
2019-03-05T00:16:30.954Z,99907.97
2019-03-05T00:17:35.972Z,99912.30
2019-03-05T00:18:40.956Z,99916.63
2019-03-05T00:19:46.208Z,99914.31
2019-03-05T00:20:51.688Z,99912.15
2019-03-05T00:21:56.704Z,99910.83
2019-03-05T00:23:01.826Z,99920.08
2019-03-05T00:24:42.484Z,99923.57
2019-03-05T00:25:47.444Z,99910.50
2019-03-05T00:26:52.931Z,99914.58
2019-03-05T00:28:39.062Z,99914.25
2019-03-05T00:30:12.553Z,99915.69
2019-03-05T00:31:27.135Z,99905.59
2019-03-05T00:32:32.163Z,99911.52
2019-03-05T00:34:04.112Z,99911.78
2019-03-05T00:35:47.805Z,99921.52
2019-03-05T00:37:12.056Z,99909.25
2019-03-05T00:38:32.672Z,99904.80
2019-03-05T00:40:17.352Z,99915.86
2019-03-05T00:41:36.374Z,99911.69
2019-03-05T00:43:18.832Z,99918.56
2019-03-05T00:44:46.917Z,99915.23
2019-03-05T00:45:59.327Z,99925.70
2019-03-05T00:47:21.308Z,99924.02
2019-03-05T00:48:48.741Z,99924.28
2019-03-05T00:50:05.877Z,99923.81
2019-03-05T00:51:50.443Z,99926.56
2019-03-05T00:53:26.787Z,99918.04
2019-03-05T00:54:59.954Z,99923.66
2019-03-05T00:57:00.200Z,99922.22
2019-03-05T00:58:13.134Z,99924.02
2019-03-05T01:00:07.814Z,99923.06
2019-03-05T01:01:28.073Z,99914.14
2019-03-05T01:02:52.705Z,99918.95
2019-03-05T01:04:07.947Z,99917.14
2019-03-05T01:06:02.796Z,99923.16
2019-03-05T01:07:07.789Z,99931.78
2019-03-05T01:08:13.099Z,99929.56
2019-03-05T01:09:21.564Z,99921.03
2019-03-05T01:10:26.543Z,99937.59
2019-03-05T01:11:31.520Z,99931.56
2019-03-05T01:12:36.890Z,99933.73
2019-03-05T01:13:41.985Z,99933.09
2019-03-05T01:14:47.596Z,99938.53
2019-03-05T01:15:52.768Z,99937.06
2019-03-05T01:16:58.159Z,99939.70
2019-03-05T01:18:03.224Z,99938.39
2019-03-05T01:19:08.246Z,99952.81
2019-03-05T01:20:13.341Z,99948.01
2019-03-05T01:21:18.407Z,99957.27
2019-03-05T01:22:23.414Z,99951.61
2019-03-05T01:23:28.508Z,99953.08
2019-03-05T01:24:33.634Z,99953.20
2019-03-05T01:25:38.797Z,99950.19
2019-03-05T01:26:43.787Z,99960.44
2019-03-05T01:27:49.324Z,99951.93
2019-03-05T01:28:54.319Z,99952.67
2019-03-05T01:29:59.377Z,99956.76
2019-03-05T01:31:26.271Z,99954.11
2019-03-05T01:32:50.796Z,99958.92
2019-03-05T01:34:03.075Z,99954.48
2019-03-05T01:35:30.726Z,99960.83
2019-03-05T01:36:38.946Z,99960.34
2019-03-05T01:37:44.040Z,99965.63
2019-03-05T01:39:05.126Z,99957.48
2019-03-05T01:40:22.517Z,99964.21
2019-03-05T01:41:27.629Z,99970.49
2019-03-05T01:42:32.605Z,99968.81
2019-03-05T01:43:37.561Z,99968.92
2019-03-05T01:44:43.361Z,99970.17
2019-03-05T01:45:48.502Z,99967.28
2019-03-05T01:46:53.945Z,99967.28
2019-03-05T01:47:59.036Z,99987.27
2019-03-05T01:49:04.018Z,99972.50
2019-03-05T01:50:11.278Z,99975.74
2019-03-05T01:51:16.305Z,99982.25
2019-03-05T01:52:21.224Z,99981.07
2019-03-05T01:53:26.121Z,99979.87
2019-03-05T01:54:31.253Z,99979.53
2019-03-05T01:55:36.277Z,99982.44
2019-03-05T01:56:41.621Z,99982.70
2019-03-05T01:57:46.545Z,99982.81
2019-03-05T01:58:51.464Z,99984.61
2019-03-05T01:59:56.599Z,99979.69
2019-03-05T02:01:01.678Z,99984.75
2019-03-05T02:02:06.809Z,99982.11
2019-03-05T02:03:12.038Z,99988.83
2019-03-05T02:04:17.232Z,99987.15
2019-03-05T02:05:22.340Z,99986.45
2019-03-05T02:06:27.296Z,99979.14
2019-03-05T02:07:32.402Z,99987.19
2019-03-05T02:08:37.466Z,99983.84
2019-03-05T02:09:42.442Z,99997.90
2019-03-05T02:10:49.401Z,99995.26
2019-03-05T02:11:54.455Z,99990.67
2019-03-05T02:12:59.708Z,99991.03
2019-03-05T02:14:04.791Z,99989.45
2019-03-05T02:15:09.865Z,99992.32
2019-03-05T02:16:14.947Z,99989.89
2019-03-05T02:17:20.181Z,99988.68
2019-03-05T02:18:26.834Z,99988.90
2019-03-05T02:19:42.918Z,99991.76
2019-03-05T02:20:48.137Z,99992.13
2019-03-05T02:21:53.192Z,99994.08
2019-03-05T02:23:21.603Z,99985.89
2019-03-05T02:25:01.102Z,99991.91
2019-03-05T02:26:38.970Z,99998.38
2019-03-05T02:28:12.526Z,99992.38
2019-03-05T02:29:45.585Z,99998.89
2019-03-05T02:31:30.415Z,99998.78
2019-03-05T02:33:08.504Z,99993.16
2019-03-05T02:34:46.750Z,100003.59
2019-03-05T02:36:03.937Z,99996.50
2019-03-05T02:37:53.157Z,100000.61
2019-03-05T02:39:25.095Z,100000.03
2019-03-05T02:40:47.809Z,99991.88
2019-03-05T02:42:35.525Z,99999.38
2019-03-05T02:44:06.924Z,99983.41
2019-03-05T02:45:42.424Z,99993.83
2019-03-05T02:47:13.707Z,99998.05
2019-03-05T02:48:53.315Z,100000.06
2019-03-05T02:50:55.883Z,99998.49
2019-03-05T02:52:16.056Z,100008.95
2019-03-05T02:54:02.301Z,100003.41
2019-03-05T02:55:48.747Z,100001.94
2019-03-05T02:57:08.622Z,100001.83
2019-03-05T02:58:12.161Z,99995.22
2019-03-05T02:59:15.692Z,99993.75
2019-03-05T03:00:32.351Z,100000.88
2019-03-05T03:01:56.677Z,99993.90
2019-03-05T03:03:07.875Z,99989.94
2019-03-05T03:04:15.088Z,99993.06
2019-03-05T03:05:42.470Z,99999.66
2019-03-05T03:06:47.968Z,100002.56
2019-03-05T03:07:52.962Z,100004.73
2019-03-05T03:09:30.891Z,100007.23
2019-03-05T03:10:35.983Z,99987.41
2019-03-05T03:11:40.951Z,99990.05
2019-03-05T03:12:46.368Z,99991.84
2019-03-05T03:13:51.338Z,99987.08
2019-03-05T03:14:56.342Z,99989.45
2019-03-05T03:16:01.285Z,99987.88
2019-03-05T03:17:06.635Z,99992.54
2019-03-05T03:18:11.600Z,99987.40
2019-03-05T03:19:16.848Z,99981.38
2019-03-05T03:20:22.963Z,99985.83
2019-03-05T03:21:27.972Z,99988.47
2019-03-05T03:22:32.903Z,99978.27
2019-03-05T03:23:37.805Z,99986.67
2019-03-05T03:24:42.831Z,99983.55
2019-03-05T03:25:48.212Z,99984.50
2019-03-05T03:26:53.129Z,99985.83
2019-03-05T03:27:58.345Z,99979.36
2019-03-05T03:29:03.369Z,99981.53
2019-03-05T03:30:10.672Z,99978.05
2019-03-05T03:31:15.672Z,99982.12
2019-03-05T03:32:20.641Z,99986.70
2019-03-05T03:33:25.871Z,99993.58
2019-03-05T03:34:31.066Z,99993.35
2019-03-05T03:35:36.122Z,99991.77
2019-03-05T03:36:41.199Z,99988.80
2019-03-05T03:37:46.391Z,99996.73
2019-03-05T03:38:51.481Z,99999.95
2019-03-05T03:39:56.506Z,99998.30
2019-03-05T03:41:01.433Z,100006.97
2019-03-05T03:42:06.507Z,99999.15
2019-03-05T03:43:11.497Z,100013.31
2019-03-05T03:44:16.541Z,100003.73
2019-03-05T03:45:25.925Z,100010.67
2019-03-05T03:46:30.878Z,100002.75
2019-03-05T03:47:36.145Z,100012.36
2019-03-05T03:48:41.128Z,100016.33
2019-03-05T03:49:46.327Z,100014.05
2019-03-05T03:50:51.369Z,100005.39
2019-03-05T03:51:56.436Z,100016.33
2019-03-05T03:53:01.434Z,100018.97
2019-03-05T03:54:06.490Z,100022.92
2019-03-05T03:55:12.453Z,100019.22
2019-03-05T03:56:17.805Z,100019.22
2019-03-05T03:57:22.764Z,100015.25
2019-03-05T03:58:27.751Z,100011.41
2019-03-05T03:59:32.803Z,100010.45
2019-03-05T04:00:37.916Z,100012.95
2019-03-05T04:01:42.964Z,100006.70
2019-03-05T04:02:48.268Z,100005.61
2019-03-05T04:03:53.312Z,100009.46
2019-03-05T04:04:58.666Z,100015.81
2019-03-05T04:06:03.706Z,100018.20
2019-03-05T04:07:09.148Z,100017.09
2019-03-05T04:08:14.228Z,100014.82
2019-03-05T04:09:19.286Z,100005.20
2019-03-05T04:10:24.212Z,100011.45
2019-03-05T04:11:29.121Z,100007.38
2019-03-05T04:12:34.064Z,100000.21
2019-03-05T04:13:39.059Z,100007.89
2019-03-05T04:14:44.061Z,100004.66
2019-03-05T04:15:49.212Z,100012.36
2019-03-05T04:16:54.173Z,100011.66
2019-03-05T04:17:59.231Z,100007.47
2019-03-05T04:19:06.842Z,100007.59
2019-03-05T04:20:14.703Z,100008.20
2019-03-05T04:21:20.253Z,100011.10
2019-03-05T04:22:25.189Z,100012.05
2019-03-05T04:23:30.180Z,100009.78
2019-03-05T04:24:35.208Z,100013.01
2019-03-05T04:25:40.414Z,100010.00
2019-03-05T04:26:45.487Z,100006.30
2019-03-05T04:27:50.531Z,100008.23
2019-03-05T04:28:55.753Z,100003.91
2019-03-05T04:30:00.762Z,100012.56
2019-03-05T04:31:05.840Z,100013.63
2019-03-05T04:32:10.766Z,100010.25
2019-03-05T04:33:15.790Z,100014.92
2019-03-05T04:34:20.743Z,100008.69
2019-03-05T04:35:25.667Z,100005.05
2019-03-05T04:36:30.855Z,100007.47
2019-03-05T04:37:35.850Z,100010.92
2019-03-05T04:38:41.030Z,100009.13
2019-03-05T04:39:46.100Z,100013.94
2019-03-05T04:40:51.061Z,100017.28
2019-03-05T04:41:56.078Z,100020.28
2019-03-05T04:43:00.980Z,100015.37
2019-03-05T04:44:06.310Z,100015.73
2019-03-05T04:46:08.828Z,100017.39
2019-03-05T04:47:13.922Z,100007.66
2019-03-05T04:48:19.055Z,100007.05
2019-03-05T04:49:41.527Z,100010.89
2019-03-05T04:50:50.943Z,100012.58
2019-03-05T04:51:59.406Z,100009.09
2019-03-05T04:53:04.359Z,99998.38
2019-03-05T04:54:09.539Z,100007.38
2019-03-05T04:55:14.521Z,100008.58
2019-03-05T04:56:19.582Z,100004.51
2019-03-05T04:57:24.773Z,100006.53
2019-03-05T04:58:30.037Z,100006.53
2019-03-05T04:59:35.305Z,100004.25
2019-03-05T05:00:40.661Z,99995.95
2019-03-05T05:01:45.856Z,100000.63
2019-03-05T05:02:51.108Z,99992.36
2019-03-05T05:03:56.182Z,100003.99
2019-03-05T05:05:01.433Z,100000.03
2019-03-05T05:06:06.702Z,100006.02
2019-03-05T05:07:11.862Z,100002.41
2019-03-05T05:08:16.883Z,100001.42
2019-03-05T05:09:21.885Z,100005.75
2019-03-05T05:10:27.121Z,100006.12
2019-03-05T05:11:32.451Z,100009.13
2019-03-05T05:12:37.736Z,100007.80
2019-03-05T05:13:42.748Z,100012.11
2019-03-05T05:14:47.760Z,100001.20
2019-03-05T05:15:52.728Z,100003.70
2019-03-05T05:16:57.778Z,100002.85
2019-03-05T05:18:03.567Z,100003.33
2019-03-05T05:19:08.568Z,100008.98
2019-03-05T05:20:14.055Z,100003.70
2019-03-05T05:21:19.162Z,99997.93
2019-03-05T05:22:24.307Z,100004.91
2019-03-05T05:23:29.489Z,100008.24
2019-03-05T05:24:34.839Z,100008.94
2019-03-05T05:25:39.874Z,100010.16
2019-03-05T05:26:44.855Z,100007.36
2019-03-05T05:27:49.874Z,100009.05
2019-03-05T05:28:54.835Z,100011.22
2019-03-05T05:29:59.785Z,100013.02
2019-03-05T05:31:04.756Z,100009.31
2019-03-05T05:32:09.671Z,100007.98
2019-03-05T05:33:14.865Z,100009.20
2019-03-05T05:34:20.223Z,100014.34
2019-03-05T05:35:25.354Z,100007.83
2019-03-05T05:36:30.363Z,100012.16
2019-03-05T05:37:35.795Z,100010.33
2019-03-05T05:38:40.735Z,100016.13
2019-03-05T05:40:21.214Z,100015.50
2019-03-05T05:41:26.248Z,100016.34
2019-03-05T05:42:31.306Z,100011.17
2019-03-05T05:43:36.330Z,100016.83
2019-03-05T05:44:41.362Z,100017.78
2019-03-05T05:45:48.097Z,100021.89
2019-03-05T05:46:53.051Z,100016.72
2019-03-05T05:47:58.027Z,100021.16
2019-03-05T05:49:02.966Z,100014.22
2019-03-05T05:50:08.038Z,100019.51
2019-03-05T05:51:13.055Z,100020.47
2019-03-05T05:52:18.346Z,100021.79
2019-03-05T05:53:23.430Z,100019.26
2019-03-05T05:54:28.419Z,100021.56
2019-03-05T05:55:33.409Z,100021.56
2019-03-05T05:56:38.437Z,100026.86
2019-03-05T05:57:43.467Z,100014.59
2019-03-05T05:58:48.706Z,100019.19
2019-03-05T05:59:53.628Z,100017.50
2019-03-05T06:01:00.485Z,100014.86
2019-03-05T06:02:05.563Z,100020.98
2019-03-05T06:03:10.665Z,100028.19
2019-03-05T06:04:15.693Z,100021.24
2019-03-05T06:05:20.676Z,100024.36
2019-03-05T06:06:25.596Z,100025.80
2019-03-05T06:07:30.585Z,100024.26
2019-03-05T06:08:35.804Z,100032.66
2019-03-05T06:09:40.844Z,100032.81
2019-03-05T06:10:46.179Z,100027.05
2019-03-05T06:11:51.182Z,100031.02
2019-03-05T06:12:56.510Z,100029.17
2019-03-05T06:14:01.455Z,100031.82
2019-03-05T06:15:07.370Z,100031.82
2019-03-05T06:16:12.543Z,100035.45
2019-03-05T06:17:17.685Z,100049.14
2019-03-05T06:18:23.062Z,100029.17
2019-03-05T06:19:28.259Z,100029.55
2019-03-05T06:20:33.227Z,100033.51
2019-03-05T06:21:38.204Z,100036.30
2019-03-05T06:22:43.235Z,100037.73
2019-03-05T06:23:48.519Z,100032.22
2019-03-05T06:24:53.606Z,100035.59
2019-03-05T06:25:58.826Z,100036.55
2019-03-05T06:27:03.826Z,100045.95
2019-03-05T06:28:08.880Z,100045.69
2019-03-05T06:29:14.094Z,100039.09
2019-03-05T06:30:19.211Z,100047.86
2019-03-05T06:31:24.143Z,100038.61
2019-03-05T06:32:29.114Z,100044.73
2019-03-05T06:33:34.132Z,100048.22
2019-03-05T06:34:39.108Z,100041.03
2019-03-05T06:35:44.287Z,100041.03
2019-03-05T06:36:54.388Z,100048.00
2019-03-05T06:37:59.511Z,100050.75
2019-03-05T06:39:05.239Z,100040.58
2019-03-05T06:40:12.719Z,100052.58
2019-03-05T06:41:17.754Z,100048.88
2019-03-05T06:42:23.516Z,100053.56
2019-03-05T06:43:28.569Z,100058.48
2019-03-05T06:44:33.622Z,100052.49
2019-03-05T06:45:38.617Z,100058.63
2019-03-05T06:46:43.738Z,100057.41
2019-03-05T06:47:48.839Z,100055.98
2019-03-05T06:48:53.811Z,100061.13
2019-03-05T06:49:58.766Z,100056.83
2019-03-05T06:51:03.858Z,100062.11
2019-03-05T06:52:11.711Z,100062.95
2019-03-05T06:53:16.072Z,100061.13
2019-03-05T06:54:21.077Z,100070.03
2019-03-05T06:55:26.123Z,100067.50
2019-03-05T06:56:31.127Z,100067.87
2019-03-05T06:57:36.172Z,100068.57
2019-03-05T06:58:41.258Z,100070.12
2019-03-05T06:59:46.200Z,100076.14
2019-03-05T07:00:51.187Z,100079.48
2019-03-05T07:01:56.381Z,100070.70
2019-03-05T07:03:01.766Z,100079.48
2019-03-05T07:04:06.933Z,100079.14
2019-03-05T07:05:48.778Z,100085.24
2019-03-05T07:06:55.394Z,100084.53
2019-03-05T07:08:00.503Z,100074.70
2019-03-05T07:09:15.796Z,100076.02
2019-03-05T07:10:42.263Z,100080.46
2019-03-05T07:12:16.421Z,100075.17
2019-03-05T07:13:22.316Z,100081.45
2019-03-05T07:14:36.728Z,100081.92
2019-03-05T07:16:08.961Z,100082.88
2019-03-05T07:17:27.136Z,100089.84
2019-03-05T07:18:41.490Z,100083.24
2019-03-05T07:20:16.002Z,100087.43
2019-03-05T07:21:56.347Z,100094.41
2019-03-05T07:23:23.433Z,100092.83
2019-03-05T07:24:46.299Z,100092.59
2019-03-05T07:25:51.223Z,100094.77
2019-03-05T07:26:56.234Z,100095.72
2019-03-05T07:28:01.250Z,100098.72
2019-03-05T07:29:06.396Z,100099.57
2019-03-05T07:30:17.667Z,100098.84
2019-03-05T07:31:22.769Z,100101.01
2019-03-05T07:32:28.012Z,100102.08
2019-03-05T07:33:33.617Z,100111.33
2019-03-05T07:34:39.944Z,100107.11
2019-03-05T07:35:45.096Z,100112.05
2019-03-05T07:36:50.131Z,100108.80
2019-03-05T07:37:55.222Z,100114.81
2019-03-05T07:39:00.111Z,100108.30
2019-03-05T07:40:06.209Z,100113.10
2019-03-05T07:41:11.291Z,100104.95
2019-03-05T07:42:16.348Z,100102.67
2019-03-05T07:43:21.391Z,100109.50
2019-03-05T07:44:26.760Z,100110.35
2019-03-05T07:45:32.045Z,100119.94
2019-03-05T07:46:37.170Z,100115.02
2019-03-05T07:47:42.337Z,100116.09
2019-03-05T07:48:47.286Z,100115.25
2019-03-05T07:49:52.488Z,100116.80
2019-03-05T07:50:57.433Z,100115.84
2019-03-05T07:52:02.536Z,100120.62
2019-03-05T07:53:07.672Z,100115.00
2019-03-05T07:54:13.242Z,100118.48
2019-03-05T07:55:18.628Z,100120.14
2019-03-05T07:56:23.599Z,100116.06
2019-03-05T07:57:28.546Z,100125.55
2019-03-05T07:58:33.827Z,100117.50
2019-03-05T07:59:38.765Z,100120.84
2019-03-05T08:00:44.198Z,100120.59
2019-03-05T08:01:49.212Z,100124.30
2019-03-05T08:02:54.223Z,100124.89
2019-03-05T08:03:59.285Z,100121.77
2019-03-05T08:05:04.481Z,100124.78
2019-03-05T08:06:09.657Z,100125.00
2019-03-05T08:07:14.703Z,100122.95
2019-03-05T08:08:55.637Z,100123.88
2019-03-05T08:10:07.090Z,100128.69
2019-03-05T08:11:12.626Z,100125.78
2019-03-05T08:13:01.768Z,100128.17
2019-03-05T08:14:33.896Z,100133.20
2019-03-05T08:16:21.579Z,100141.06
2019-03-05T08:17:26.654Z,100143.59
2019-03-05T08:18:31.764Z,100146.50
2019-03-05T08:19:36.964Z,100144.81
2019-03-05T08:20:42.216Z,100148.41
2019-03-05T08:21:47.225Z,100149.73
2019-03-05T08:22:52.351Z,100150.72
2019-03-05T08:23:57.579Z,100150.23
2019-03-05T08:25:02.827Z,100152.88
2019-03-05T08:26:07.833Z,100149.98
2019-03-05T08:27:12.936Z,100160.70
2019-03-05T08:28:18.718Z,100154.09
2019-03-05T08:29:23.717Z,100154.20
2019-03-05T08:30:28.714Z,100161.80
2019-03-05T08:31:33.748Z,100157.94
2019-03-05T08:32:38.889Z,100161.54
2019-03-05T08:33:43.955Z,100169.95
2019-03-05T08:34:49.042Z,100167.67
2019-03-05T08:35:54.091Z,100161.91
2019-03-05T08:36:59.002Z,100173.70
2019-03-05T08:38:04.027Z,100174.40
2019-03-05T08:39:09.245Z,100176.90
2019-03-05T08:40:14.652Z,100176.79
2019-03-05T08:41:19.633Z,100182.30
2019-03-05T08:42:24.566Z,100186.75
2019-03-05T08:43:29.610Z,100181.12
2019-03-05T08:44:34.872Z,100185.56
2019-03-05T08:45:40.246Z,100184.02
2019-03-05T08:46:45.470Z,100189.05
2019-03-05T08:47:50.664Z,100188.23
2019-03-05T08:48:56.016Z,100200.84
2019-03-05T08:50:01.301Z,100191.69
2019-03-05T08:51:06.282Z,100194.84
2019-03-05T08:52:11.236Z,100195.66
2019-03-05T08:53:16.468Z,100194.00
2019-03-05T08:54:21.552Z,100193.53
2019-03-05T08:55:26.670Z,100197.83
2019-03-05T08:56:32.286Z,100197.83
2019-03-05T08:57:37.257Z,100207.70
2019-03-05T08:58:42.228Z,100205.16
2019-03-05T08:59:47.486Z,100208.28
2019-03-05T09:00:52.634Z,100209.61
2019-03-05T09:01:57.946Z,100207.58
2019-03-05T09:03:02.966Z,100209.27
2019-03-05T09:04:08.281Z,100204.31
2019-03-05T09:05:13.967Z,100205.64
2019-03-05T09:06:19.088Z,100205.64
2019-03-05T09:07:24.005Z,100203.00
2019-03-05T09:08:29.291Z,100199.87
2019-03-05T09:09:34.387Z,100204.21
2019-03-05T09:10:39.511Z,100204.69
2019-03-05T09:11:44.977Z,100211.19
2019-03-05T09:12:50.138Z,100211.52
2019-03-05T09:13:55.169Z,100202.02
2019-03-05T09:15:00.310Z,100200.81
2019-03-05T09:16:05.395Z,100200.81
2019-03-05T09:17:10.780Z,100212.35
2019-03-05T09:18:15.893Z,100214.05
2019-03-05T09:19:20.951Z,100206.56
2019-03-05T09:20:26.089Z,100206.56
2019-03-05T09:21:32.753Z,100213.98
2019-03-05T09:22:37.845Z,100208.44
2019-03-05T09:23:42.985Z,100212.05
2019-03-05T09:24:47.949Z,100216.83
2019-03-05T09:25:53.093Z,100216.83
2019-03-05T09:26:58.063Z,100218.27
2019-03-05T09:28:03.060Z,100215.84
2019-03-05T09:29:08.114Z,100220.51
2019-03-05T09:30:15.929Z,100223.52
2019-03-05T09:31:20.898Z,100216.17
2019-03-05T09:32:26.237Z,100220.73
2019-03-05T09:33:31.322Z,100225.14
2019-03-05T09:34:36.223Z,100217.53
2019-03-05T09:35:41.223Z,100217.53
2019-03-05T09:36:50.788Z,100221.76
2019-03-05T09:37:52.999Z,100224.96
2019-03-05T09:38:58.060Z,100224.73
2019-03-05T09:40:03.130Z,100224.47
2019-03-05T09:41:08.642Z,100225.05
2019-03-05T09:42:13.773Z,100218.65
2019-03-05T09:43:18.766Z,100218.65
2019-03-05T09:44:23.790Z,100216.58
2019-03-05T09:45:29.227Z,100227.61
2019-03-05T09:46:34.113Z,100223.27
2019-03-05T09:47:39.128Z,100224.33
2019-03-05T09:48:44.221Z,100220.57
2019-03-05T09:49:49.152Z,100215.38
2019-03-05T09:50:54.345Z,100225.59
2019-03-05T09:51:59.372Z,100213.67
2019-03-05T09:53:05.084Z,100221.95
2019-03-05T09:54:10.240Z,100224.96
2019-03-05T09:55:17.474Z,100224.00
2019-03-05T09:56:22.613Z,100218.75
2019-03-05T09:57:29.022Z,100218.75
2019-03-05T09:58:34.244Z,100228.93
2019-03-05T09:59:39.689Z,100215.45
2019-03-05T10:00:44.645Z,100220.12
2019-03-05T10:01:51.836Z,100219.84
2019-03-05T10:02:56.975Z,100215.70
2019-03-05T10:04:02.175Z,100212.78
2019-03-05T10:05:08.369Z,100212.63
2019-03-05T10:06:13.338Z,100211.45
2019-03-05T10:07:19.354Z,100211.45
2019-03-05T10:08:32.384Z,100213.05
2019-03-05T10:09:31.563Z,100221.70
2019-03-05T10:10:36.613Z,100208.50
2019-03-05T10:11:42.083Z,100208.50
2019-03-05T10:12:47.426Z,100227.36
2019-03-05T10:13:52.520Z,100227.00
2019-03-05T10:14:57.524Z,100228.69
2019-03-05T10:16:02.464Z,100222.42
2019-03-05T10:17:07.483Z,100231.06
2019-03-05T10:18:13.234Z,100222.75
2019-03-05T10:19:18.511Z,100222.75
2019-03-05T10:20:23.509Z,100221.31
2019-03-05T10:21:28.433Z,100221.31
2019-03-05T10:22:33.357Z,100229.20
2019-03-05T10:23:38.533Z,100227.61
2019-03-05T10:24:43.999Z,100218.06
2019-03-05T10:25:49.490Z,100226.10
2019-03-05T10:26:54.665Z,100226.80
2019-03-05T10:28:00.187Z,100228.84
2019-03-05T10:29:06.947Z,100223.17
2019-03-05T10:30:24.695Z,100233.78
2019-03-05T10:31:23.907Z,100234.42
2019-03-05T10:32:29.007Z,100232.09
2019-03-05T10:33:33.997Z,100232.09
2019-03-05T10:34:39.119Z,100230.86
2019-03-05T10:35:44.180Z,100227.09
2019-03-05T10:36:49.360Z,100230.95
2019-03-05T10:37:55.818Z,100232.64
2019-03-05T10:39:00.911Z,100231.91
2019-03-05T10:40:06.334Z,100229.05
2019-03-05T10:41:11.708Z,100230.17
2019-03-05T10:42:16.792Z,100234.27
2019-03-05T10:43:21.725Z,100230.92
2019-03-05T10:44:26.942Z,100237.82
2019-03-05T10:45:31.968Z,100233.81
2019-03-05T10:46:37.237Z,100237.58
2019-03-05T10:47:42.314Z,100237.58
2019-03-05T10:48:47.747Z,100240.34
2019-03-05T10:49:52.819Z,100239.28
2019-03-05T10:50:58.687Z,100252.27
2019-03-05T10:52:03.877Z,100250.05
2019-03-05T10:53:08.934Z,100245.56
2019-03-05T10:54:13.938Z,100245.98
2019-03-05T10:55:26.310Z,100241.14
2019-03-05T10:56:27.012Z,100245.17
2019-03-05T10:57:36.691Z,100233.78
2019-03-05T10:58:41.866Z,100246.95
2019-03-05T10:59:47.205Z,100249.18
2019-03-05T11:00:52.370Z,100251.23
2019-03-05T11:01:57.622Z,100254.37
2019-03-05T11:03:02.798Z,100255.42
2019-03-05T11:04:08.027Z,100259.81
2019-03-05T11:05:13.287Z,100259.81
2019-03-05T11:06:18.384Z,100259.70
2019-03-05T11:07:24.225Z,100255.23
2019-03-05T11:08:29.394Z,100246.28
2019-03-05T11:09:34.781Z,100252.91
2019-03-05T11:10:41.235Z,100247.13
2019-03-05T11:11:46.416Z,100253.27
2019-03-05T11:12:51.459Z,100257.61
2019-03-05T11:13:56.472Z,100259.30
2019-03-05T11:15:01.647Z,100246.91
2019-03-05T11:16:06.760Z,100252.31
2019-03-05T11:17:11.982Z,100257.25
2019-03-05T11:18:17.077Z,100259.55
2019-03-05T11:19:21.991Z,100256.29
2019-03-05T11:20:27.302Z,100258.30
2019-03-05T11:21:32.417Z,100248.93
2019-03-05T11:22:37.888Z,100248.93
2019-03-05T11:23:42.968Z,100261.32
2019-03-05T11:24:48.152Z,100258.75
2019-03-05T11:25:53.236Z,100258.81
2019-03-05T11:26:58.267Z,100255.27
2019-03-05T11:28:03.558Z,100251.38
2019-03-05T11:29:08.551Z,100258.91
2019-03-05T11:30:17.081Z,100255.77
2019-03-05T11:31:22.099Z,100265.55
2019-03-05T11:32:27.084Z,100262.97
2019-03-05T11:33:32.082Z,100268.57
2019-03-05T11:34:37.151Z,100266.80
2019-03-05T11:35:42.406Z,100267.84
2019-03-05T11:36:47.510Z,100266.24
2019-03-05T11:37:52.560Z,100268.98
2019-03-05T11:38:57.599Z,100274.56
2019-03-05T11:40:02.662Z,100274.37
2019-03-05T11:41:07.777Z,100272.19
2019-03-05T11:42:12.724Z,100274.92
2019-03-05T11:43:18.103Z,100271.83
2019-03-05T11:44:23.225Z,100271.54
2019-03-05T11:45:28.530Z,100278.05
2019-03-05T11:46:33.495Z,100274.27
2019-03-05T11:47:38.549Z,100275.47
2019-03-05T11:48:43.714Z,100283.28
2019-03-05T11:49:48.824Z,100279.09
2019-03-05T11:50:53.789Z,100274.76
2019-03-05T11:51:59.106Z,100274.76
2019-03-05T11:53:04.112Z,100277.41
2019-03-05T11:54:09.417Z,100267.83
2019-03-05T11:55:15.643Z,100274.19
2019-03-05T11:56:20.926Z,100278.89
2019-03-05T11:57:26.082Z,100280.06
2019-03-05T11:58:31.027Z,100284.60
2019-03-05T11:59:36.297Z,100280.69
2019-03-05T12:00:59.803Z,100283.34
2019-03-05T12:02:05.295Z,100284.19
2019-03-05T12:03:10.666Z,100281.66
2019-03-05T12:04:15.603Z,100294.39
2019-03-05T12:05:21.183Z,100290.69
2019-03-05T12:06:26.181Z,100294.63
2019-03-05T12:07:31.103Z,100300.84
2019-03-05T12:08:36.263Z,100299.59
2019-03-05T12:09:41.602Z,100299.67
2019-03-05T12:10:46.588Z,100309.02
2019-03-05T12:11:51.646Z,100305.80
2019-03-05T12:12:56.830Z,100309.38
2019-03-05T12:14:01.800Z,100308.94
2019-03-05T12:15:09.522Z,100314.20
2019-03-05T12:16:15.329Z,100312.63
2019-03-05T12:17:20.367Z,100311.95
2019-03-05T12:18:25.624Z,100310.25
2019-03-05T12:19:31.238Z,100311.09
2019-03-05T12:20:36.596Z,100310.49
2019-03-05T12:21:41.633Z,100310.49
2019-03-05T12:22:46.720Z,100306.27
2019-03-05T12:23:52.172Z,100306.06
2019-03-05T12:24:57.732Z,100309.00
2019-03-05T12:26:03.795Z,100314.47
2019-03-05T12:27:08.927Z,100308.59
2019-03-05T12:28:14.076Z,100312.48
2019-03-05T12:29:19.243Z,100305.73
2019-03-05T12:30:24.550Z,100306.48
2019-03-05T12:31:29.696Z,100303.42
2019-03-05T12:32:34.891Z,100312.83
2019-03-05T12:33:40.007Z,100313.11
2019-03-05T12:34:45.035Z,100310.60
2019-03-05T12:35:50.139Z,100311.48
2019-03-05T12:36:55.541Z,100313.08
2019-03-05T12:38:00.434Z,100316.97
2019-03-05T12:39:06.412Z,100307.47
2019-03-05T12:40:12.654Z,100316.28
2019-03-05T12:41:17.976Z,100308.53
2019-03-05T12:42:23.081Z,100302.26
2019-03-05T12:43:28.039Z,100309.73
2019-03-05T12:44:33.401Z,100308.25
2019-03-05T12:45:38.440Z,100307.30
2019-03-05T12:46:43.486Z,100307.66
2019-03-05T12:47:48.896Z,100304.36
2019-03-05T12:48:53.963Z,100303.52
2019-03-05T12:49:59.158Z,100303.04
2019-03-05T12:51:04.521Z,100300.75
2019-03-05T12:52:10.193Z,100304.78
2019-03-05T12:53:16.144Z,100305.14
2019-03-05T12:54:21.283Z,100305.14
2019-03-05T12:55:26.484Z,100308.73
2019-03-05T12:56:31.554Z,100312.37
2019-03-05T12:57:36.774Z,100325.13
2019-03-05T12:58:42.517Z,100307.38
2019-03-05T12:59:47.512Z,100307.75
2019-03-05T13:00:52.899Z,100321.16
2019-03-05T13:01:57.990Z,100318.11
2019-03-05T13:03:03.117Z,100320.64
2019-03-05T13:04:08.236Z,100320.97
2019-03-05T13:05:13.960Z,100314.69
2019-03-05T13:06:19.014Z,100311.83